sensor_id;sensor_type;location;lat;lon;timestamp;pressure;altitude;pressure_sealevel;temperature
68027;BMP180;54819;48.030;14.710;2022-10-23T00:01:15;97939.80;;;11.02
68027;BMP180;54819;48.030;14.710;2022-10-23T00:03:42;97938.80;;;11.10
68027;BMP180;54819;48.030;14.710;2022-10-23T00:06:10;97941.40;;;11.10
68027;BMP180;54819;48.030;14.710;2022-10-23T00:08:39;97945.80;;;11.10
68027;BMP180;54819;48.030;14.710;2022-10-23T00:11:10;97946.40;;;11.12
68027;BMP180;54819;48.030;14.710;2022-10-23T00:13:38;97950.20;;;11.10
68027;BMP180;54819;48.030;14.710;2022-10-23T00:16:05;97950.40;;;11.10
68027;BMP180;54819;48.030;14.710;2022-10-23T00:18:33;97944.60;;;11.04
68027;BMP180;54819;48.030;14.710;2022-10-23T00:21:00;97944.80;;;11.00
68027;BMP180;54819;48.030;14.710;2022-10-23T00:23:27;97940.00;;;11.00
68027;BMP180;54819;48.030;14.710;2022-10-23T00:25:54;97938.60;;;11.00
68027;BMP180;54819;48.030;14.710;2022-10-23T00:28:21;97937.40;;;11.00
68027;BMP180;54819;48.030;14.710;2022-10-23T00:30:48;97938.40;;;11.00
68027;BMP180;54819;48.030;14.710;2022-10-23T00:33:15;97934.00;;;10.98
68027;BMP180;54819;48.030;14.710;2022-10-23T00:35:42;97936.40;;;11.00
68027;BMP180;54819;48.030;14.710;2022-10-23T00:38:09;97932.40;;;11.00
68027;BMP180;54819;48.030;14.710;2022-10-23T00:40:37;97928.00;;;11.00
68027;BMP180;54819;48.030;14.710;2022-10-23T00:43:05;97928.40;;;11.00
68027;BMP180;54819;48.030;14.710;2022-10-23T00:45:33;97922.60;;;11.00
68027;BMP180;54819;48.030;14.710;2022-10-23T00:48:00;97915.20;;;11.00
68027;BMP180;54819;48.030;14.710;2022-10-23T00:50:30;97920.20;;;11.00
68027;BMP180;54819;48.030;14.710;2022-10-23T00:53:00;97922.60;;;11.00
68027;BMP180;54819;48.030;14.710;2022-10-23T00:55:28;97921.60;;;11.00
68027;BMP180;54819;48.030;14.710;2022-10-23T00:57:55;97926.40;;;10.98
68027;BMP180;54819;48.030;14.710;2022-10-23T01:00:25;97920.20;;;10.90
68027;BMP180;54819;48.030;14.710;2022-10-23T01:02:53;97922.80;;;10.88
68027;BMP180;54819;48.030;14.710;2022-10-23T01:05:25;97916.80;;;10.80
68027;BMP180;54819;48.030;14.710;2022-10-23T01:08:05;97924.40;;;10.80
68027;BMP180;54819;48.030;14.710;2022-10-23T01:10:43;97926.20;;;10.72
68027;BMP180;54819;48.030;14.710;2022-10-23T01:13:14;97927.40;;;10.62
68027;BMP180;54819;48.030;14.710;2022-10-23T01:15:47;97928.60;;;10.70
68027;BMP180;54819;48.030;14.710;2022-10-23T01:18:25;97919.60;;;10.68
68027;BMP180;54819;48.030;14.710;2022-10-23T01:21:08;97915.60;;;10.64
68027;BMP180;54819;48.030;14.710;2022-10-23T01:27:14;97913.40;;;10.50
68027;BMP180;54819;48.030;14.710;2022-10-23T01:29:37;97909.80;;;10.50
68027;BMP180;54819;48.030;14.710;2022-10-23T01:38:04;97895.80;;;10.40
68027;BMP180;54819;48.030;14.710;2022-10-23T01:40:54;97893.40;;;10.40
68027;BMP180;54819;48.030;14.710;2022-10-23T01:43:37;97892.20;;;10.40
68027;BMP180;54819;48.030;14.710;2022-10-23T01:46:09;97888.80;;;10.40
68027;BMP180;54819;48.030;14.710;2022-10-23T01:48:38;97892.20;;;10.40
68027;BMP180;54819;48.030;14.710;2022-10-23T01:51:08;97896.00;;;10.40
68027;BMP180;54819;48.030;14.710;2022-10-23T01:53:38;97893.80;;;10.40
68027;BMP180;54819;48.030;14.710;2022-10-23T01:56:12;97885.80;;;10.30
68027;BMP180;54819;48.030;14.710;2022-10-23T01:58:42;97879.00;;;10.30
68027;BMP180;54819;48.030;14.710;2022-10-23T02:01:12;97880.40;;;10.30
68027;BMP180;54819;48.030;14.710;2022-10-23T02:03:47;97888.00;;;10.24
68027;BMP180;54819;48.030;14.710;2022-10-23T02:06:15;97886.00;;;10.20
68027;BMP180;54819;48.030;14.710;2022-10-23T02:08:42;97897.20;;;10.20
68027;BMP180;54819;48.030;14.710;2022-10-23T02:11:13;97891.80;;;10.10
68027;BMP180;54819;48.030;14.710;2022-10-23T02:14:23;97893.60;;;10.10
68027;BMP180;54819;48.030;14.710;2022-10-23T02:16:51;97891.60;;;10.10
68027;BMP180;54819;48.030;14.710;2022-10-23T02:22:28;97890.20;;;10.10
68027;BMP180;54819;48.030;14.710;2022-10-23T02:25:07;97887.20;;;10.10
68027;BMP180;54819;48.030;14.710;2022-10-23T02:27:46;97885.60;;;10.10
68027;BMP180;54819;48.030;14.710;2022-10-23T02:30:16;97885.60;;;10.08
68027;BMP180;54819;48.030;14.710;2022-10-23T02:32:51;97877.20;;;10.00
68027;BMP180;54819;48.030;14.710;2022-10-23T02:35:21;97878.40;;;10.00
68027;BMP180;54819;48.030;14.710;2022-10-23T02:37:55;97872.80;;;10.00
68027;BMP180;54819;48.030;14.710;2022-10-23T02:40:30;97872.20;;;9.90
68027;BMP180;54819;48.030;14.710;2022-10-23T02:43:05;97873.00;;;9.90
68027;BMP180;54819;48.030;14.710;2022-10-23T02:45:43;97865.00;;;9.80
68027;BMP180;54819;48.030;14.710;2022-10-23T02:48:18;97871.80;;;9.80
68027;BMP180;54819;48.030;14.710;2022-10-23T02:50:57;97862.80;;;9.70
68027;BMP180;54819;48.030;14.710;2022-10-23T02:53:40;97877.40;;;9.60
68027;BMP180;54819;48.030;14.710;2022-10-23T02:56:25;97879.60;;;9.50
68027;BMP180;54819;48.030;14.710;2022-10-23T03:01:35;97865.00;;;9.40
68027;BMP180;54819;48.030;14.710;2022-10-23T03:04:05;97862.40;;;9.30
68027;BMP180;54819;48.030;14.710;2022-10-23T03:06:34;97860.40;;;9.20
68027;BMP180;54819;48.030;14.710;2022-10-23T03:09:04;97854.60;;;9.10
68027;BMP180;54819;48.030;14.710;2022-10-23T03:11:31;97863.60;;;9.00
68027;BMP180;54819;48.030;14.710;2022-10-23T03:13:58;97862.60;;;9.00
68027;BMP180;54819;48.030;14.710;2022-10-23T03:16:25;97857.40;;;8.90
68027;BMP180;54819;48.030;14.710;2022-10-23T03:18:53;97850.20;;;8.90
68027;BMP180;54819;48.030;14.710;2022-10-23T03:21:20;97852.00;;;8.90
68027;BMP180;54819;48.030;14.710;2022-10-23T03:23:49;97853.20;;;8.88
68027;BMP180;54819;48.030;14.710;2022-10-23T03:26:20;97849.40;;;8.80
68027;BMP180;54819;48.030;14.710;2022-10-23T03:28:47;97847.60;;;8.80
68027;BMP180;54819;48.030;14.710;2022-10-23T03:31:14;97841.20;;;8.80
68027;BMP180;54819;48.030;14.710;2022-10-23T03:33:42;97839.80;;;8.80
68027;BMP180;54819;48.030;14.710;2022-10-23T03:36:10;97842.80;;;8.70
68027;BMP180;54819;48.030;14.710;2022-10-23T03:38:37;97839.40;;;8.60
68027;BMP180;54819;48.030;14.710;2022-10-23T03:41:04;97840.20;;;8.60
68027;BMP180;54819;48.030;14.710;2022-10-23T03:43:31;97836.60;;;8.60
68027;BMP180;54819;48.030;14.710;2022-10-23T03:45:58;97831.40;;;8.60
68027;BMP180;54819;48.030;14.710;2022-10-23T03:48:26;97822.60;;;8.70
68027;BMP180;54819;48.030;14.710;2022-10-23T03:50:56;97818.40;;;8.80
68027;BMP180;54819;48.030;14.710;2022-10-23T03:53:23;97818.00;;;8.80
68027;BMP180;54819;48.030;14.710;2022-10-23T03:55:50;97819.40;;;8.80
68027;BMP180;54819;48.030;14.710;2022-10-23T03:58:16;97817.00;;;8.74
68027;BMP180;54819;48.030;14.710;2022-10-23T04:00:43;97822.00;;;8.78
68027;BMP180;54819;48.030;14.710;2022-10-23T04:03:10;97821.80;;;8.80
68027;BMP180;54819;48.030;14.710;2022-10-23T04:05:37;97821.60;;;8.72
68027;BMP180;54819;48.030;14.710;2022-10-23T04:08:04;97822.60;;;8.70
68027;BMP180;54819;48.030;14.710;2022-10-23T04:10:32;97831.00;;;8.70
68027;BMP180;54819;48.030;14.710;2022-10-23T04:12:59;97827.80;;;8.60
68027;BMP180;54819;48.030;14.710;2022-10-23T04:15:26;97831.00;;;8.54
68027;BMP180;54819;48.030;14.710;2022-10-23T04:17:53;97833.60;;;8.50
68027;BMP180;54819;48.030;14.710;2022-10-23T04:20:20;97833.80;;;8.40
68027;BMP180;54819;48.030;14.710;2022-10-23T04:22:46;97841.80;;;8.40
68027;BMP180;54819;48.030;14.710;2022-10-23T04:25:13;97841.80;;;8.38
68027;BMP180;54819;48.030;14.710;2022-10-23T04:27:43;97838.00;;;8.30
68027;BMP180;54819;48.030;14.710;2022-10-23T04:30:10;97839.80;;;8.30
68027;BMP180;54819;48.030;14.710;2022-10-23T04:32:38;97845.60;;;8.30
68027;BMP180;54819;48.030;14.710;2022-10-23T04:35:05;97842.80;;;8.30
68027;BMP180;54819;48.030;14.710;2022-10-23T04:37:32;97844.60;;;8.30
68027;BMP180;54819;48.030;14.710;2022-10-23T04:39:59;97847.40;;;8.30
68027;BMP180;54819;48.030;14.710;2022-10-23T04:42:26;97846.80;;;8.20
68027;BMP180;54819;48.030;14.710;2022-10-23T04:44:59;97846.40;;;8.22
68027;BMP180;54819;48.030;14.710;2022-10-23T04:47:27;97845.00;;;8.30
68027;BMP180;54819;48.030;14.710;2022-10-23T04:49:56;97840.60;;;8.24
68027;BMP180;54819;48.030;14.710;2022-10-23T04:52:56;97841.20;;;8.30
68027;BMP180;54819;48.030;14.710;2022-10-23T04:55:23;97843.40;;;8.30
68027;BMP180;54819;48.030;14.710;2022-10-23T04:58:12;97844.60;;;8.30
68027;BMP180;54819;48.030;14.710;2022-10-23T05:00:39;97842.60;;;8.30
68027;BMP180;54819;48.030;14.710;2022-10-23T05:03:07;97838.60;;;8.30
68027;BMP180;54819;48.030;14.710;2022-10-23T05:05:40;97831.20;;;8.30
68027;BMP180;54819;48.030;14.710;2022-10-23T05:08:29;97831.60;;;8.24
68027;BMP180;54819;48.030;14.710;2022-10-23T05:11:02;97828.60;;;8.20
68027;BMP180;54819;48.030;14.710;2022-10-23T05:13:34;97822.80;;;8.20
68027;BMP180;54819;48.030;14.710;2022-10-23T05:16:00;97821.20;;;8.20
68027;BMP180;54819;48.030;14.710;2022-10-23T05:18:29;97823.80;;;8.20
68027;BMP180;54819;48.030;14.710;2022-10-23T05:21:21;97822.00;;;8.16
68027;BMP180;54819;48.030;14.710;2022-10-23T05:23:52;97809.00;;;8.18
68027;BMP180;54819;48.030;14.710;2022-10-23T05:26:20;97805.40;;;8.20
68027;BMP180;54819;48.030;14.710;2022-10-23T05:28:50;97809.00;;;8.20
68027;BMP180;54819;48.030;14.710;2022-10-23T05:31:17;97807.40;;;8.10
68027;BMP180;54819;48.030;14.710;2022-10-23T05:33:48;97806.60;;;8.10
68027;BMP180;54819;48.030;14.710;2022-10-23T05:36:18;97808.60;;;8.10
68027;BMP180;54819;48.030;14.710;2022-10-23T05:38:45;97807.40;;;8.10
68027;BMP180;54819;48.030;14.710;2022-10-23T05:41:15;97807.20;;;8.10
68027;BMP180;54819;48.030;14.710;2022-10-23T05:43:41;97811.80;;;8.10
68027;BMP180;54819;48.030;14.710;2022-10-23T05:46:28;97808.20;;;8.10
68027;BMP180;54819;48.030;14.710;2022-10-23T05:49:10;97807.80;;;8.10
68027;BMP180;54819;48.030;14.710;2022-10-23T05:51:49;97808.00;;;8.10
68027;BMP180;54819;48.030;14.710;2022-10-23T05:54:38;97803.60;;;8.10
68027;BMP180;54819;48.030;14.710;2022-10-23T05:57:21;97807.80;;;8.16
68027;BMP180;54819;48.030;14.710;2022-10-23T05:59:50;97810.40;;;8.20
68027;BMP180;54819;48.030;14.710;2022-10-23T06:02:35;97799.40;;;8.20
68027;BMP180;54819;48.030;14.710;2022-10-23T06:05:07;97796.60;;;8.20
68027;BMP180;54819;48.030;14.710;2022-10-23T06:07:51;97797.00;;;8.22
68027;BMP180;54819;48.030;14.710;2022-10-23T06:10:18;97803.60;;;8.24
68027;BMP180;54819;48.030;14.710;2022-10-23T06:12:45;97804.80;;;8.22
68027;BMP180;54819;48.030;14.710;2022-10-23T06:15:14;97800.60;;;8.30
68027;BMP180;54819;48.030;14.710;2022-10-23T06:17:52;97800.60;;;8.30
68027;BMP180;54819;48.030;14.710;2022-10-23T06:20:19;97795.40;;;8.30
68027;BMP180;54819;48.030;14.710;2022-10-23T06:22:58;97798.40;;;8.36
68027;BMP180;54819;48.030;14.710;2022-10-23T06:25:49;97798.60;;;8.36
68027;BMP180;54819;48.030;14.710;2022-10-23T06:28:16;97795.80;;;8.40
68027;BMP180;54819;48.030;14.710;2022-10-23T06:30:47;97797.40;;;8.40
68027;BMP180;54819;48.030;14.710;2022-10-23T06:33:13;97798.40;;;8.40
68027;BMP180;54819;48.030;14.710;2022-10-23T06:35:40;97796.40;;;8.40
68027;BMP180;54819;48.030;14.710;2022-10-23T06:38:09;97803.60;;;8.40
68027;BMP180;54819;48.030;14.710;2022-10-23T06:40:40;97811.20;;;8.40
68027;BMP180;54819;48.030;14.710;2022-10-23T06:43:07;97819.00;;;8.50
68027;BMP180;54819;48.030;14.710;2022-10-23T06:45:51;97816.80;;;8.56
68027;BMP180;54819;48.030;14.710;2022-10-23T06:48:56;97819.40;;;8.62
68027;BMP180;54819;48.030;14.710;2022-10-23T06:51:27;97818.00;;;8.70
68027;BMP180;54819;48.030;14.710;2022-10-23T06:53:55;97814.80;;;8.70
68027;BMP180;54819;48.030;14.710;2022-10-23T06:56:41;97815.20;;;8.70
68027;BMP180;54819;48.030;14.710;2022-10-23T06:59:07;97817.00;;;8.80
68027;BMP180;54819;48.030;14.710;2022-10-23T07:01:35;97818.20;;;8.80
68027;BMP180;54819;48.030;14.710;2022-10-23T07:04:03;97824.60;;;8.90
68027;BMP180;54819;48.030;14.710;2022-10-23T07:06:30;97828.60;;;8.90
68027;BMP180;54819;48.030;14.710;2022-10-23T07:08:58;97822.60;;;9.00
68027;BMP180;54819;48.030;14.710;2022-10-23T07:11:43;97820.00;;;9.10
68027;BMP180;54819;48.030;14.710;2022-10-23T07:14:11;97819.00;;;9.12
68027;BMP180;54819;48.030;14.710;2022-10-23T07:16:37;97813.00;;;9.20
68027;BMP180;54819;48.030;14.710;2022-10-23T07:19:04;97816.40;;;9.22
68027;BMP180;54819;48.030;14.710;2022-10-23T07:21:47;97818.40;;;9.30
68027;BMP180;54819;48.030;14.710;2022-10-23T07:24:32;97816.60;;;9.40
68027;BMP180;54819;48.030;14.710;2022-10-23T07:27:06;97816.00;;;9.50
68027;BMP180;54819;48.030;14.710;2022-10-23T07:29:33;97819.60;;;9.56
68027;BMP180;54819;48.030;14.710;2022-10-23T07:32:01;97820.60;;;9.60
68027;BMP180;54819;48.030;14.710;2022-10-23T07:34:27;97823.20;;;9.60
68027;BMP180;54819;48.030;14.710;2022-10-23T07:37:32;97827.80;;;9.70
68027;BMP180;54819;48.030;14.710;2022-10-23T07:40:02;97828.40;;;9.80
68027;BMP180;54819;48.030;14.710;2022-10-23T07:42:30;97825.60;;;9.80
68027;BMP180;54819;48.030;14.710;2022-10-23T07:44:57;97828.20;;;9.80
68027;BMP180;54819;48.030;14.710;2022-10-23T07:47:24;97826.40;;;9.90
68027;BMP180;54819;48.030;14.710;2022-10-23T07:49:51;97822.40;;;9.90
68027;BMP180;54819;48.030;14.710;2022-10-23T07:52:18;97826.40;;;10.06
68027;BMP180;54819;48.030;14.710;2022-10-23T07:55:04;97829.40;;;10.18
68027;BMP180;54819;48.030;14.710;2022-10-23T07:57:33;97824.00;;;10.30
68027;BMP180;54819;48.030;14.710;2022-10-23T08:00:13;97827.20;;;10.46
68027;BMP180;54819;48.030;14.710;2022-10-23T08:02:40;97833.60;;;10.60
68027;BMP180;54819;48.030;14.710;2022-10-23T08:05:08;97836.60;;;10.80
68027;BMP180;54819;48.030;14.710;2022-10-23T08:07:47;97834.40;;;10.90
68027;BMP180;54819;48.030;14.710;2022-10-23T08:10:15;97833.60;;;11.00
68027;BMP180;54819;48.030;14.710;2022-10-23T08:12:42;97832.60;;;11.10
68027;BMP180;54819;48.030;14.710;2022-10-23T08:15:09;97824.60;;;11.20
68027;BMP180;54819;48.030;14.710;2022-10-23T08:17:46;97820.20;;;11.32
68027;BMP180;54819;48.030;14.710;2022-10-23T08:20:19;97819.00;;;11.44
68027;BMP180;54819;48.030;14.710;2022-10-23T08:22:45;97816.00;;;11.56
68027;BMP180;54819;48.030;14.710;2022-10-23T08:25:16;97814.20;;;11.56
68027;BMP180;54819;48.030;14.710;2022-10-23T08:27:50;97817.40;;;11.68
68027;BMP180;54819;48.030;14.710;2022-10-23T08:30:18;97812.20;;;11.70
68027;BMP180;54819;48.030;14.710;2022-10-23T08:32:45;97805.80;;;11.80
68027;BMP180;54819;48.030;14.710;2022-10-23T08:35:12;97801.00;;;11.80
68027;BMP180;54819;48.030;14.710;2022-10-23T08:37:39;97793.20;;;11.90
68027;BMP180;54819;48.030;14.710;2022-10-23T08:40:15;97790.20;;;11.94
68027;BMP180;54819;48.030;14.710;2022-10-23T08:43:02;97790.80;;;12.10
68027;BMP180;54819;48.030;14.710;2022-10-23T08:48:54;97776.00;;;12.50
68027;BMP180;54819;48.030;14.710;2022-10-23T08:51:51;97775.40;;;12.70
68027;BMP180;54819;48.030;14.710;2022-10-23T08:54:25;97772.80;;;12.80
68027;BMP180;54819;48.030;14.710;2022-10-23T08:56:57;97766.80;;;13.00
68027;BMP180;54819;48.030;14.710;2022-10-23T08:59:33;97766.80;;;13.10
68027;BMP180;54819;48.030;14.710;2022-10-23T09:02:24;97764.00;;;13.20
68027;BMP180;54819;48.030;14.710;2022-10-23T09:04:53;97763.60;;;13.30
68027;BMP180;54819;48.030;14.710;2022-10-23T09:12:40;97770.20;;;13.60
68027;BMP180;54819;48.030;14.710;2022-10-23T09:18:11;97762.00;;;13.80
68027;BMP180;54819;48.030;14.710;2022-10-23T09:20:39;97765.80;;;13.90
68027;BMP180;54819;48.030;14.710;2022-10-23T09:25:41;97779.80;;;14.10
68027;BMP180;54819;48.030;14.710;2022-10-23T09:28:35;97778.40;;;14.18
68027;BMP180;54819;48.030;14.710;2022-10-23T09:31:07;97780.40;;;14.30
68027;BMP180;54819;48.030;14.710;2022-10-23T09:33:34;97778.40;;;14.36
68027;BMP180;54819;48.030;14.710;2022-10-23T09:41:19;97790.80;;;14.50
68027;BMP180;54819;48.030;14.710;2022-10-23T09:44:00;97789.60;;;14.50
68027;BMP180;54819;48.030;14.710;2022-10-23T09:49:17;97783.00;;;14.60
68027;BMP180;54819;48.030;14.710;2022-10-23T09:51:55;97781.60;;;14.60
68027;BMP180;54819;48.030;14.710;2022-10-23T09:54:25;97773.20;;;14.70
68027;BMP180;54819;48.030;14.710;2022-10-23T09:56:53;97771.60;;;14.80
68027;BMP180;54819;48.030;14.710;2022-10-23T09:59:29;97777.40;;;14.90
68027;BMP180;54819;48.030;14.710;2022-10-23T10:01:58;97771.20;;;15.00
68027;BMP180;54819;48.030;14.710;2022-10-23T10:04:53;97770.40;;;15.10
68027;BMP180;54819;48.030;14.710;2022-10-23T10:07:28;97763.40;;;15.20
68027;BMP180;54819;48.030;14.710;2022-10-23T10:10:00;97756.00;;;15.30
68027;BMP180;54819;48.030;14.710;2022-10-23T10:15:37;97755.60;;;15.50
68027;BMP180;54819;48.030;14.710;2022-10-23T10:20:56;97750.00;;;15.70
68027;BMP180;54819;48.030;14.710;2022-10-23T10:23:45;97749.40;;;15.84
68027;BMP180;54819;48.030;14.710;2022-10-23T10:39:00;97732.00;;;16.30
68027;BMP180;54819;48.030;14.710;2022-10-23T10:41:54;97725.80;;;16.40
68027;BMP180;54819;48.030;14.710;2022-10-23T10:44:44;97716.60;;;16.50
68027;BMP180;54819;48.030;14.710;2022-10-23T10:47:21;97711.20;;;16.62
68027;BMP180;54819;48.030;14.710;2022-10-23T10:52:28;97706.00;;;16.90
68027;BMP180;54819;48.030;14.710;2022-10-23T10:57:39;97699.00;;;17.20
68027;BMP180;54819;48.030;14.710;2022-10-23T11:00:17;97692.40;;;17.36
68027;BMP180;54819;48.030;14.710;2022-10-23T11:02:51;97681.80;;;17.50
68027;BMP180;54819;48.030;14.710;2022-10-23T11:05:38;97681.00;;;17.58
68027;BMP180;54819;48.030;14.710;2022-10-23T11:10:57;97673.20;;;17.78
68027;BMP180;54819;48.030;14.710;2022-10-23T11:13:36;97668.40;;;17.94
68027;BMP180;54819;48.030;14.710;2022-10-23T11:16:11;97662.80;;;18.10
68027;BMP180;54819;48.030;14.710;2022-10-23T11:18:41;97664.40;;;18.20
68027;BMP180;54819;48.030;14.710;2022-10-23T11:24:11;97660.00;;;18.20
68027;BMP180;54819;48.030;14.710;2022-10-23T11:37:21;97644.00;;;18.50
68027;BMP180;54819;48.030;14.710;2022-10-23T11:40:03;97637.00;;;18.50
68027;BMP180;54819;48.030;14.710;2022-10-23T11:48:04;97623.00;;;18.60
68027;BMP180;54819;48.030;14.710;2022-10-23T11:50:53;97620.40;;;18.70
68027;BMP180;54819;48.030;14.710;2022-10-23T11:58:57;97607.60;;;18.90
68027;BMP180;54819;48.030;14.710;2022-10-23T12:04:02;97596.40;;;19.06
68027;BMP180;54819;48.030;14.710;2022-10-23T12:06:51;97596.00;;;19.02
68027;BMP180;54819;48.030;14.710;2022-10-23T12:12:02;97592.60;;;19.10
68027;BMP180;54819;48.030;14.710;2022-10-23T12:14:35;97584.40;;;19.10
68027;BMP180;54819;48.030;14.710;2022-10-23T12:19:53;97562.20;;;19.00
68027;BMP180;54819;48.030;14.710;2022-10-23T12:22:24;97560.20;;;19.00
68027;BMP180;54819;48.030;14.710;2022-10-23T12:25:07;97555.00;;;19.00
68027;BMP180;54819;48.030;14.710;2022-10-23T12:33:18;97554.60;;;18.80
68027;BMP180;54819;48.030;14.710;2022-10-23T12:38:43;97546.40;;;18.80
68027;BMP180;54819;48.030;14.710;2022-10-23T12:41:26;97540.80;;;18.70
68027;BMP180;54819;48.030;14.710;2022-10-23T12:43:56;97549.40;;;18.70
68027;BMP180;54819;48.030;14.710;2022-10-23T12:48:57;97548.60;;;18.70
68027;BMP180;54819;48.030;14.710;2022-10-23T12:51:26;97550.60;;;18.60
68027;BMP180;54819;48.030;14.710;2022-10-23T12:53:54;97544.60;;;18.60
68027;BMP180;54819;48.030;14.710;2022-10-23T12:56:21;97540.40;;;18.60
68027;BMP180;54819;48.030;14.710;2022-10-23T12:58:57;97532.80;;;18.58
68027;BMP180;54819;48.030;14.710;2022-10-23T13:01:33;97532.60;;;18.58
68027;BMP180;54819;48.030;14.710;2022-10-23T13:04:46;97531.00;;;18.50
68027;BMP180;54819;48.030;14.710;2022-10-23T13:06:59;97532.20;;;18.50
68027;BMP180;54819;48.030;14.710;2022-10-23T13:09:32;97531.40;;;18.50
68027;BMP180;54819;48.030;14.710;2022-10-23T13:12:34;97539.60;;;18.50
68027;BMP180;54819;48.030;14.710;2022-10-23T13:23:38;97523.60;;;18.36
68027;BMP180;54819;48.030;14.710;2022-10-23T13:25:39;97521.60;;;18.38
68027;BMP180;54819;48.030;14.710;2022-10-23T13:28:19;97519.00;;;18.30
68027;BMP180;54819;48.030;14.710;2022-10-23T13:31:42;97517.40;;;18.20
68027;BMP180;54819;48.030;14.710;2022-10-23T13:33:51;97514.20;;;18.20
68027;BMP180;54819;48.030;14.710;2022-10-23T13:36:30;97503.00;;;18.20
68027;BMP180;54819;48.030;14.710;2022-10-23T13:41:28;97496.20;;;18.20
68027;BMP180;54819;48.030;14.710;2022-10-23T13:43:55;97498.60;;;18.30
68027;BMP180;54819;48.030;14.710;2022-10-23T13:46:23;97496.20;;;18.30
68027;BMP180;54819;48.030;14.710;2022-10-23T13:48:51;97493.20;;;18.40
68027;BMP180;54819;48.030;14.710;2022-10-23T13:51:23;97492.60;;;18.40
68027;BMP180;54819;48.030;14.710;2022-10-23T13:53:51;97492.60;;;18.40
68027;BMP180;54819;48.030;14.710;2022-10-23T13:56:20;97490.20;;;18.40
68027;BMP180;54819;48.030;14.710;2022-10-23T13:58:47;97491.40;;;18.40
68027;BMP180;54819;48.030;14.710;2022-10-23T14:01:26;97488.40;;;18.38
68027;BMP180;54819;48.030;14.710;2022-10-23T14:03:55;97488.40;;;18.30
68027;BMP180;54819;48.030;14.710;2022-10-23T14:06:22;97484.80;;;18.30
68027;BMP180;54819;48.030;14.710;2022-10-23T14:08:49;97485.60;;;18.30
68027;BMP180;54819;48.030;14.710;2022-10-23T14:11:17;97487.00;;;18.30
68027;BMP180;54819;48.030;14.710;2022-10-23T14:13:44;97490.20;;;18.30
68027;BMP180;54819;48.030;14.710;2022-10-23T14:16:12;97491.20;;;18.30
68027;BMP180;54819;48.030;14.710;2022-10-23T14:18:40;97494.40;;;18.30
68027;BMP180;54819;48.030;14.710;2022-10-23T14:21:09;97486.80;;;18.28
68027;BMP180;54819;48.030;14.710;2022-10-23T14:23:36;97488.60;;;18.20
68027;BMP180;54819;48.030;14.710;2022-10-23T14:26:05;97485.80;;;18.20
68027;BMP180;54819;48.030;14.710;2022-10-23T14:28:32;97481.20;;;18.10
68027;BMP180;54819;48.030;14.710;2022-10-23T14:31:07;97487.80;;;18.10
68027;BMP180;54819;48.030;14.710;2022-10-23T14:33:35;97485.20;;;18.00
68027;BMP180;54819;48.030;14.710;2022-10-23T14:36:02;97486.00;;;18.00
68027;BMP180;54819;48.030;14.710;2022-10-23T14:38:29;97484.60;;;18.00
68027;BMP180;54819;48.030;14.710;2022-10-23T14:40:55;97482.60;;;17.90
68027;BMP180;54819;48.030;14.710;2022-10-23T14:43:22;97484.40;;;17.90
68027;BMP180;54819;48.030;14.710;2022-10-23T14:45:49;97483.00;;;17.82
68027;BMP180;54819;48.030;14.710;2022-10-23T14:48:17;97483.60;;;17.80
68027;BMP180;54819;48.030;14.710;2022-10-23T14:50:46;97483.00;;;17.80
68027;BMP180;54819;48.030;14.710;2022-10-23T14:53:14;97479.60;;;17.82
68027;BMP180;54819;48.030;14.710;2022-10-23T14:55:41;97479.80;;;17.82
68027;BMP180;54819;48.030;14.710;2022-10-23T14:58:07;97487.40;;;17.88
68027;BMP180;54819;48.030;14.710;2022-10-23T15:00:34;97490.80;;;17.90
68027;BMP180;54819;48.030;14.710;2022-10-23T15:03:01;97489.20;;;17.90
68027;BMP180;54819;48.030;14.710;2022-10-23T15:05:28;97484.60;;;17.90
68027;BMP180;54819;48.030;14.710;2022-10-23T15:07:54;97477.20;;;17.90
68027;BMP180;54819;48.030;14.710;2022-10-23T15:10:22;97468.60;;;17.80
68027;BMP180;54819;48.030;14.710;2022-10-23T15:12:48;97483.80;;;17.70
68027;BMP180;54819;48.030;14.710;2022-10-23T15:15:15;97481.00;;;17.60
68027;BMP180;54819;48.030;14.710;2022-10-23T15:17:42;97474.60;;;17.52
68027;BMP180;54819;48.030;14.710;2022-10-23T15:20:09;97468.80;;;17.44
68027;BMP180;54819;48.030;14.710;2022-10-23T15:22:36;97470.80;;;17.34
68027;BMP180;54819;48.030;14.710;2022-10-23T15:25:03;97475.40;;;17.22
68027;BMP180;54819;48.030;14.710;2022-10-23T15:27:30;97470.60;;;17.20
68027;BMP180;54819;48.030;14.710;2022-10-23T15:29:57;97462.40;;;17.10
68027;BMP180;54819;48.030;14.710;2022-10-23T15:32:23;97470.00;;;17.00
68027;BMP180;54819;48.030;14.710;2022-10-23T15:34:50;97466.80;;;16.98
68027;BMP180;54819;48.030;14.710;2022-10-23T15:37:19;97468.40;;;16.90
68027;BMP180;54819;48.030;14.710;2022-10-23T15:39:45;97465.20;;;16.80
68027;BMP180;54819;48.030;14.710;2022-10-23T15:42:12;97470.00;;;16.70
68027;BMP180;54819;48.030;14.710;2022-10-23T15:44:40;97471.60;;;16.60
68027;BMP180;54819;48.030;14.710;2022-10-23T15:47:07;97474.00;;;16.50
68027;BMP180;54819;48.030;14.710;2022-10-23T15:49:33;97475.80;;;16.50
68027;BMP180;54819;48.030;14.710;2022-10-23T15:52:01;97475.00;;;16.38
68027;BMP180;54819;48.030;14.710;2022-10-23T15:54:30;97479.20;;;16.30
68027;BMP180;54819;48.030;14.710;2022-10-23T15:56:59;97474.20;;;16.20
68027;BMP180;54819;48.030;14.710;2022-10-23T15:59:27;97478.80;;;16.10
68027;BMP180;54819;48.030;14.710;2022-10-23T16:01:54;97478.60;;;16.00
68027;BMP180;54819;48.030;14.710;2022-10-23T16:04:21;97478.00;;;15.98
68027;BMP180;54819;48.030;14.710;2022-10-23T16:06:49;97476.60;;;15.90
68027;BMP180;54819;48.030;14.710;2022-10-23T16:09:17;97474.40;;;15.80
68027;BMP180;54819;48.030;14.710;2022-10-23T16:11:44;97474.40;;;15.76
68027;BMP180;54819;48.030;14.710;2022-10-23T16:14:14;97479.00;;;15.70
68027;BMP180;54819;48.030;14.710;2022-10-23T16:16:42;97486.00;;;15.62
68027;BMP180;54819;48.030;14.710;2022-10-23T16:19:09;97477.80;;;15.60
68027;BMP180;54819;48.030;14.710;2022-10-23T16:21:37;97480.00;;;15.60
68027;BMP180;54819;48.030;14.710;2022-10-23T16:24:05;97475.80;;;15.52
68027;BMP180;54819;48.030;14.710;2022-10-23T16:26:34;97480.60;;;15.50